Time;durP1;ratioP1;P1;durP2;ratioP2;P2;SDS_P1;SDS_P2;PMS_P1;PMS_P2;Temp;Humidity;BMP_temperature;BMP_pressure;BME280_temperature;BME280_humidity;BME280_pressure;Samples;Min_cycle;Max_cycle;Signal;HPM_P1;HPM_P2
2023/05/01 00:02:09;;;;;;;8.27;3.13;;;;;;;10.46;100.00;101375.91;5053462;28;20545;-81
2023/05/01 00:04:37;;;;;;;8.50;1.80;;;;;;;10.48;100.00;101368.53;5036513;28;20029;-83
2023/05/01 00:07:03;;;;;;;5.45;1.63;;;;;;;10.53;100.00;101368.91;5020166;28;20064;-84
2023/05/01 00:09:32;;;;;;;6.03;2.03;;;;;;;10.53;100.00;101358.16;5020095;28;20060;-83
2023/05/01 00:11:57;;;;;;;9.40;2.83;;;;;;;10.58;100.00;101368.41;5052768;28;20079;-84
2023/05/01 00:14:23;;;;;;;9.30;2.45;;;;;;;10.60;100.00;101366.41;5036200;28;20398;-85
2023/05/01 00:16:48;;;;;;;3.50;1.65;;;;;;;10.62;100.00;101360.88;5052981;28;20025;-85
2023/05/01 00:19:17;;;;;;;7.90;1.73;;;;;;;10.65;100.00;101364.06;5036515;28;20033;-84
2023/05/01 00:21:52;;;;;;;6.65;2.10;;;;;;;10.69;100.00;101376.19;5052412;28;20037;-84
2023/05/01 00:24:20;;;;;;;4.88;1.85;;;;;;;10.71;100.00;101365.25;5037318;28;20112;-82
2023/05/01 00:26:46;;;;;;;8.23;2.15;;;;;;;10.75;100.00;101370.16;5035899;28;20029;-81
2023/05/01 00:29:12;;;;;;;9.10;1.92;;;;;;;10.77;100.00;101362.78;5036246;28;20068;-83
2023/05/01 00:31:41;;;;;;;7.28;2.30;;;;;;;10.77;100.00;101365.47;5036073;28;20044;-84
2023/05/01 00:34:13;;;;;;;5.97;2.15;;;;;;;10.81;100.00;101357.91;5052683;28;20028;-82
2023/05/01 00:36:42;;;;;;;9.07;2.47;;;;;;;10.81;100.00;101355.22;5052484;28;20170;-84
2023/05/01 00:39:11;;;;;;;9.65;2.50;;;;;;;10.85;100.00;101353.91;5036128;28;20099;-84
2023/05/01 00:41:36;;;;;;;6.15;2.20;;;;;;;10.77;100.00;101357.41;5035688;28;20033;-81
2023/05/01 00:44:02;;;;;;;10.05;1.92;;;;;;;10.78;100.00;101351.00;5052944;28;20032;-85
2023/05/01 00:46:32;;;;;;;8.52;2.25;;;;;;;10.82;100.00;101358.75;5035879;28;20124;-82
2023/05/01 00:48:57;;;;;;;8.35;1.85;;;;;;;10.63;100.00;101327.59;5019663;28;20033;-84
2023/05/01 00:51:27;;;;;;;7.10;1.88;;;;;;;10.69;100.00;101343.06;5035866;28;20032;-82
2023/05/01 00:54:00;;;;;;;6.43;1.95;;;;;;;10.84;100.00;101354.88;5052544;28;20487;-84
2023/05/01 00:56:26;;;;;;;4.30;1.92;;;;;;;10.85;100.00;101353.91;5035883;28;20028;-83
2023/05/01 00:58:53;;;;;;;9.93;1.70;;;;;;;10.76;100.00;101327.97;5052382;28;20531;-84
2023/05/01 01:01:24;;;;;;;1.70;1.30;;;;;;;10.91;100.00;101353.25;5053563;28;20112;-83
2023/05/01 01:03:50;;;;;;;7.95;2.53;;;;;;;10.89;100.00;101344.47;5051816;28;20025;-84
2023/05/01 01:06:22;;;;;;;5.95;1.98;;;;;;;10.85;100.00;101344.97;5052174;28;20029;-86
2023/05/01 01:09:14;;;;;;;7.30;1.77;;;;;;;10.96;100.00;101352.75;5036132;28;20036;-85
2023/05/01 01:11:50;;;;;;;5.70;1.40;;;;;;;10.93;100.00;101350.41;5019030;28;20029;-87
2023/05/01 01:14:33;;;;;;;3.10;1.88;;;;;;;10.91;100.00;101341.66;5052048;28;20059;-84
2023/05/01 01:17:15;;;;;;;2.78;1.60;;;;;;;10.87;100.00;101341.09;5019365;28;20098;-86
2023/05/01 01:20:12;;;;;;;6.18;1.73;;;;;;;10.89;100.00;101354.41;5019544;28;20087;-83
2023/05/01 01:22:40;;;;;;;4.90;1.65;;;;;;;10.78;100.00;101325.97;5045567;28;20106;-84
2023/05/01 01:25:19;;;;;;;6.18;1.83;;;;;;;10.82;100.00;101338.06;5035224;28;20029;-84
2023/05/01 01:27:57;;;;;;;4.00;1.30;;;;;;;10.87;100.00;101356.41;5019460;28;20048;-84
2023/05/01 01:30:35;;;;;;;4.90;1.50;;;;;;;10.76;100.00;101341.41;5052115;28;20025;-85
2023/05/01 01:33:41;;;;;;;9.30;1.67;;;;;;;10.78;100.00;101339.41;5035602;28;20029;-81
2023/05/01 01:36:14;;;;;;;2.65;1.38;;;;;;;10.77;100.00;101332.34;5052193;28;20028;-85
2023/05/01 01:38:45;;;;;;;7.88;2.00;;;;;;;10.74;100.00;101327.28;5035754;28;20460;-86
2023/05/01 01:41:20;;;;;;;6.13;1.92;;;;;;;10.77;100.00;101341.25;5051803;28;20201;-85
2023/05/01 01:43:57;;;;;;;5.03;2.45;;;;;;;10.77;100.00;101340.44;5018785;28;20395;-82
2023/05/01 01:46:24;;;;;;;5.25;1.42;;;;;;;10.79;100.00;101346.47;5018852;28;20368;-85
2023/05/01 01:48:53;;;;;;;7.18;1.70;;;;;;;10.76;100.00;101342.25;5018923;28;20040;-83
2023/05/01 01:51:23;;;;;;;6.30;2.00;;;;;;;10.77;100.00;101345.81;5051548;28;20057;-83
2023/05/01 01:53:52;;;;;;;4.60;1.83;;;;;;;10.84;100.00;101348.66;5019157;28;20046;-85
2023/05/01 01:56:23;;;;;;;4.63;1.58;;;;;;;10.82;100.00;101348.81;5020709;28;20107;-83
2023/05/01 01:58:52;;;;;;;5.45;1.73;;;;;;;10.86;100.00;101349.34;5055895;28;20033;-82
2023/05/01 02:01:21;;;;;;;2.88;1.45;;;;;;;10.82;100.00;101340.75;5022848;28;20472;-82
2023/05/01 02:03:47;;;;;;;4.53;1.52;;;;;;;10.69;100.00;101327.78;5006766;28;20037;-86
2023/05/01 02:06:14;;;;;;;2.35;1.60;;;;;;;10.60;100.00;101320.69;5022486;28;20057;-86
2023/05/01 02:08:41;;;;;;;5.05;1.63;;;;;;;10.73;100.00;101347.97;5022555;28;20029;-87
2023/05/01 02:11:09;;;;;;;4.78;1.67;;;;;;;10.65;100.00;101337.19;5055354;28;20112;-82
2023/05/01 02:13:35;;;;;;;6.43;1.58;;;;;;;10.67;100.00;101348.63;5038848;28;20029;-83
2023/05/01 02:16:04;;;;;;;2.65;0.88;;;;;;;10.61;100.00;101335.84;5022349;28;20114;-86
2023/05/01 02:18:30;;;;;;;4.90;1.67;;;;;;;10.68;100.00;101341.38;5022373;28;20044;-83
2023/05/01 02:20:59;;;;;;;3.78;1.55;;;;;;;10.69;100.00;101351.13;5038756;28;20064;-84
2023/05/01 02:23:28;;;;;;;5.55;2.13;;;;;;;10.65;100.00;101358.69;5039062;28;20033;-83
2023/05/01 02:25:55;;;;;;;8.35;2.88;;;;;;;10.64;100.00;101364.22;5038543;28;20060;-82
2023/05/01 02:28:28;;;;;;;5.53;1.42;;;;;;;10.62;100.00;101359.00;5038408;28;20404;-85
2023/05/01 02:30:54;;;;;;;4.95;1.48;;;;;;;10.62;100.00;101358.19;5055079;28;20033;-82
2023/05/01 02:33:22;;;;;;;1.95;1.10;;;;;;;10.66;100.00;101360.38;5038322;28;20040;-84
2023/05/01 02:35:48;;;;;;;6.57;1.92;;;;;;;10.66;100.00;101363.06;5038332;28;20490;-84
2023/05/01 02:38:15;;;;;;;4.50;1.67;;;;;;;10.68;100.00;101358.34;5038094;28;20097;-85
2023/05/01 02:40:44;;;;;;;7.03;1.60;;;;;;;10.68;100.00;101349.47;5021739;28;20025;-87
2023/05/01 02:43:14;;;;;;;2.92;1.20;;;;;;;10.72;100.00;101358.91;5037976;28;20035;-85
2023/05/01 02:45:41;;;;;;;3.72;1.08;;;;;;;10.76;100.00;101354.88;5005368;28;20033;-83
2023/05/01 02:48:13;;;;;;;2.58;0.93;;;;;;;10.81;100.00;101349.00;5070905;28;20388;-83
2023/05/01 02:50:41;;;;;;;4.22;1.27;;;;;;;10.82;100.00;101346.13;5005150;28;20202;-84
2023/05/01 02:53:08;;;;;;;2.20;0.90;;;;;;;10.84;100.00;101359.44;5020897;28;20082;-82
2023/05/01 02:55:36;;;;;;;3.25;1.50;;;;;;;10.73;100.00;101344.44;5021398;28;20494;-83
2023/05/01 02:58:03;;;;;;;2.92;1.30;;;;;;;10.83;100.00;101360.44;5021148;28;20056;-86
2023/05/01 03:00:31;;;;;;;2.45;1.35;;;;;;;10.68;100.00;101336.00;5021888;28;20052;-86
2023/05/01 03:02:57;;;;;;;6.78;1.60;;;;;;;10.77;100.00;101367.31;5054467;28;20037;-83
2023/05/01 03:05:22;;;;;;;4.38;1.30;;;;;;;10.74;100.00;101370.31;5037857;28;20460;-85
2023/05/01 03:07:52;;;;;;;3.22;1.23;;;;;;;10.69;100.00;101362.75;5054933;28;20048;-81
2023/05/01 03:10:18;;;;;;;4.78;1.25;;;;;;;10.68;100.00;101371.81;5054315;28;20032;-85
2023/05/01 03:12:43;;;;;;;4.28;1.33;;;;;;;10.68;100.00;101369.13;5054332;28;20037;-81
2023/05/01 03:15:12;;;;;;;5.10;1.60;;;;;;;10.64;100.00;101366.91;5021385;28;20447;-86
2023/05/01 03:17:40;;;;;;;4.47;1.77;;;;;;;10.60;100.00;101370.94;5037708;28;20115;-83
2023/05/01 03:20:08;;;;;;;1.48;0.80;;;;;;;10.54;100.00;101359.81;5037636;28;20036;-85
2023/05/01 03:22:36;;;;;;;2.30;0.95;;;;;;;10.63;100.00;101373.31;5053753;28;20025;-85
2023/05/01 03:25:03;;;;;;;5.97;1.48;;;;;;;10.60;100.00;101373.63;5055131;28;20517;-85
2023/05/01 03:27:29;;;;;;;7.80;1.73;;;;;;;10.59;100.00;101372.78;5053975;28;20040;-85
2023/05/01 03:29:58;;;;;;;8.82;1.73;;;;;;;10.62;100.00;101391.28;5037394;28;20029;-83
2023/05/01 03:32:28;;;;;;;3.00;1.52;;;;;;;10.45;100.00;101374.25;5020831;28;20036;-86
2023/05/01 03:34:53;;;;;;;8.18;1.88;;;;;;;10.58;100.00;101397.97;5037249;28;20116;-84
2023/05/01 03:37:19;;;;;;;4.57;1.65;;;;;;;10.57;100.00;101388.25;5020822;28;20033;-84
2023/05/01 03:39:47;;;;;;;6.55;1.20;;;;;;;10.64;100.00;101401.88;5037250;28;20041;-86
2023/05/01 03:42:16;;;;;;;4.18;1.40;;;;;;;10.62;100.00;101406.59;5037393;28;20039;-84
2023/05/01 03:44:41;;;;;;;6.00;1.98;;;;;;;10.63;100.00;101414.47;5053245;28;20596;-84
2023/05/01 03:47:09;;;;;;;5.13;1.42;;;;;;;10.62;100.00;101404.72;5020804;28;20039;-86
2023/05/01 03:49:35;;;;;;;6.80;1.58;;;;;;;10.63;100.00;101402.88;5053296;28;20025;-85
2023/05/01 03:52:03;;;;;;;3.90;1.38;;;;;;;10.64;100.00;101409.94;5036669;28;20028;-82
2023/05/01 03:54:31;;;;;;;3.15;1.30;;;;;;;10.53;100.00;101389.53;5020790;28;20119;-82
2023/05/01 03:56:57;;;;;;;4.32;1.20;;;;;;;10.62;100.00;101399.34;5020231;28;20379;-86
2023/05/01 03:59:25;;;;;;;2.15;0.98;;;;;;;10.57;100.00;101405.22;5053439;28;20045;-85
2023/05/01 04:01:51;;;;;;;9.02;2.30;;;;;;;10.58;100.00;101408.72;5053277;28;20025;-86
2023/05/01 04:04:20;;;;;;;3.60;1.10;;;;;;;10.52;100.00;101404.00;5053437;28;20040;-83
2023/05/01 04:06:47;;;;;;;4.47;0.98;;;;;;;10.45;100.00;101400.25;5019848;28;20032;-85
2023/05/01 04:09:13;;;;;;;5.82;1.25;;;;;;;10.52;100.00;101412.06;5053193;28;20029;-84
2023/05/01 04:11:38;;;;;;;4.55;1.30;;;;;;;10.45;100.00;101398.44;5036315;28;20040;-85
2023/05/01 04:14:07;;;;;;;1.92;1.20;;;;;;;10.42;100.00;101397.88;5020005;28;20102;-81
2023/05/01 04:16:32;;;;;;;3.45;1.05;;;;;;;10.47;100.00;101409.84;5036188;28;20041;-85
2023/05/01 04:18:58;;;;;;;4.82;1.48;;;;;;;10.37;100.00;101397.53;5035270;28;20529;-85
2023/05/01 04:21:24;;;;;;;3.90;1.13;;;;;;;10.41;100.00;101410.50;5052441;28;20029;-83
2023/05/01 04:23:49;;;;;;;4.88;1.30;;;;;;;10.40;100.00;101406.13;5020081;28;20087;-82
2023/05/01 04:26:15;;;;;;;5.78;1.33;;;;;;;10.44;100.00;101407.50;5019799;28;20029;-86
2023/05/01 04:28:41;;;;;;;1.15;0.80;;;;;;;10.46;100.00;101418.09;5052706;28;20090;-84
2023/05/01 04:31:06;;;;;;;2.53;1.00;;;;;;;10.47;100.00;101409.84;5052805;28;20063;-82
2023/05/01 04:33:32;;;;;;;1.27;0.90;;;;;;;10.44;100.00;101409.34;5035998;28;20386;-85
2023/05/01 04:35:58;;;;;;;1.45;1.00;;;;;;;10.31;100.00;101386.41;5019777;28;20067;-82
2023/05/01 04:38:23;;;;;;;3.88;1.00;;;;;;;10.29;100.00;101392.94;5035870;28;20433;-84
2023/05/01 04:40:49;;;;;;;2.38;1.40;;;;;;;10.34;100.00;101410.28;5019850;28;20068;-86
2023/05/01 04:43:15;;;;;;;4.82;1.00;;;;;;;10.28;100.00;101416.28;5035661;28;20035;-84
2023/05/01 04:45:40;;;;;;;1.98;1.02;;;;;;;10.24;100.00;101409.53;5051924;28;20033;-81
2023/05/01 04:48:06;;;;;;;5.72;1.40;;;;;;;10.20;100.00;101418.06;5036048;28;20036;-85
2023/05/01 04:50:34;;;;;;;1.65;1.08;;;;;;;10.12;100.00;101406.25;5051973;28;20475;-82
2023/05/01 04:53:05;;;;;;;4.63;1.42;;;;;;;10.08;100.00;101412.06;5052458;28;20025;-86
2023/05/01 04:55:30;;;;;;;4.25;1.08;;;;;;;10.08;100.00;101412.06;5051695;28;20506;-85
2023/05/01 04:57:59;;;;;;;2.47;1.63;;;;;;;10.06;100.00;101417.63;5035216;28;20049;-83
2023/05/01 05:00:26;;;;;;;8.43;1.30;;;;;;;10.06;100.00;101414.09;5035483;28;20037;-81
2023/05/01 05:02:59;;;;;;;3.15;0.98;;;;;;;10.06;100.00;101422.16;5052188;28;20025;-82
2023/05/01 05:05:28;;;;;;;3.05;0.90;;;;;;;9.97;100.00;101397.06;5018993;28;20031;-83
2023/05/01 05:07:58;;;;;;;1.75;1.10;;;;;;;10.05;100.00;101415.91;5035546;28;20368;-82
2023/05/01 05:10:23;;;;;;;7.30;1.10;;;;;;;10.06;100.00;101417.63;5035907;28;20028;-84
2023/05/01 05:12:49;;;;;;;5.78;1.05;;;;;;;10.09;100.00;101422.69;5035730;28;20083;-85
2023/05/01 05:15:15;;;;;;;4.63;1.00;;;;;;;10.11;100.00;101428.75;5053110;28;20037;-83
2023/05/01 05:17:41;;;;;;;5.68;1.30;;;;;;;10.16;100.00;101427.41;5051863;28;20445;-84
2023/05/01 05:20:07;;;;;;;5.28;1.30;;;;;;;10.19;100.00;101427.09;5035593;28;20021;-85
2023/05/01 05:22:36;;;;;;;5.65;1.20;;;;;;;10.22;100.00;101432.19;5035721;28;20033;-88
2023/05/01 05:25:05;;;;;;;4.50;0.93;;;;;;;10.24;100.00;101430.16;5035367;28;20616;-85
2023/05/01 05:27:37;;;;;;;2.00;1.10;;;;;;;10.32;100.00;101444.56;5019531;28;20036;-82
2023/05/01 05:30:06;;;;;;;3.70;0.90;;;;;;;10.33;100.00;101440.03;5053260;28;20040;-83
2023/05/01 05:32:32;;;;;;;5.15;1.10;;;;;;;10.39;100.00;101443.91;5039808;28;20033;-81
2023/05/01 05:34:58;;;;;;;2.90;1.10;;;;;;;10.32;100.00;101447.25;5039734;28;20115;-82
2023/05/01 05:37:24;;;;;;;3.08;0.93;;;;;;;10.23;100.00;101453.50;5039157;28;20437;-81
2023/05/01 05:39:57;;;;;;;7.10;1.05;;;;;;;10.09;100.00;101441.50;5055789;28;20475;-81
2023/05/01 05:42:23;;;;;;;1.00;0.80;;;;;;;10.05;100.00;101458.91;5022905;28;20036;-86
2023/05/01 05:44:51;;;;;;;0.45;0.45;;;;;;;10.07;100.00;101451.53;5022406;28;20033;-87
2023/05/01 05:47:20;;;;;;;1.48;0.80;;;;;;;10.09;100.00;101459.47;5022819;28;20090;-86
2023/05/01 05:49:47;;;;;;;1.40;0.73;;;;;;;10.03;100.00;101460.94;5038933;28;20033;-82
2023/05/01 05:52:15;;;;;;;2.65;0.77;;;;;;;9.99;100.00;101450.63;5055405;28;20035;-82
2023/05/01 05:54:46;;;;;;;0.80;0.50;;;;;;;9.97;100.00;101461.53;5038722;28;20060;-82
2023/05/01 05:57:12;;;;;;;3.40;0.75;;;;;;;9.96;100.00;101457.16;5055408;28;20039;-84
2023/05/01 05:59:38;;;;;;;0.60;0.60;;;;;;;10.00;100.00;101458.56;5022635;28;20021;-86
2023/05/01 06:02:06;;;;;;;0.57;0.57;;;;;;;10.03;100.00;101455.56;5038954;28;20044;-85
2023/05/01 06:04:31;;;;;;;0.90;0.80;;;;;;;10.04;100.00;101462.59;5039134;28;20032;-85
2023/05/01 06:07:01;;;;;;;1.90;0.90;;;;;;;10.16;100.00;101462.34;5056371;28;20387;-83
2023/05/01 06:09:26;;;;;;;0.90;0.60;;;;;;;10.10;100.00;101451.22;5022537;28;20039;-82
2023/05/01 06:11:52;;;;;;;1.60;0.70;;;;;;;10.21;100.00;101463.56;5038892;28;20044;-86
2023/05/01 06:14:18;;;;;;;0.65;0.60;;;;;;;10.17;100.00;101459.53;5038855;28;20037;-86
2023/05/01 06:16:43;;;;;;;0.70;0.70;;;;;;;10.31;100.00;101474.28;5038400;28;20037;-82
2023/05/01 06:19:12;;;;;;;1.45;0.70;;;;;;;10.37;100.00;101473.63;5022427;28;20028;-84
2023/05/01 06:21:38;;;;;;;0.68;0.68;;;;;;;10.28;100.00;101463.84;5022206;28;20467;-82
2023/05/01 06:24:07;;;;;;;3.65;0.73;;;;;;;10.48;100.00;101486.84;5022352;28;20025;-82
2023/05/01 06:26:35;;;;;;;1.10;0.57;;;;;;;10.46;100.00;101480.78;5022036;28;20384;-83
2023/05/01 06:29:01;;;;;;;2.55;1.00;;;;;;;10.55;100.00;101485.19;5055121;28;20060;-86
2023/05/01 06:31:26;;;;;;;1.08;0.52;;;;;;;10.71;100.00;101492.53;5021799;28;20075;-84
2023/05/01 06:33:52;;;;;;;3.78;0.80;;;;;;;11.14;100.00;101488.06;5021841;28;20029;-86
2023/05/01 06:36:18;;;;;;;0.57;0.55;;;;;;;11.66;100.00;101489.72;5022057;28;20383;-85
2023/05/01 06:38:48;;;;;;;1.75;0.60;;;;;;;11.95;100.00;101499.25;5022016;28;20048;-84
2023/05/01 06:41:20;;;;;;;1.30;0.70;;;;;;;11.94;100.00;101493.00;5053998;28;20523;-83
2023/05/01 06:44:08;;;;;;;0.88;0.63;;;;;;;11.94;100.00;101489.47;5040370;28;20068;-84
2023/05/01 06:46:41;;;;;;;2.13;0.73;;;;;;;12.15;100.00;101499.78;5054694;28;20025;-82
2023/05/01 06:49:07;;;;;;;1.15;0.50;;;;;;;12.16;100.00;101502.28;5054915;28;20029;-83
2023/05/01 06:51:33;;;;;;;0.60;0.60;;;;;;;12.23;100.00;101491.69;5037674;28;20112;-83
2023/05/01 06:54:04;;;;;;;0.50;0.50;;;;;;;12.40;100.00;101504.13;5054712;28;20029;-79
2023/05/01 06:56:32;;;;;;;1.63;0.70;;;;;;;12.54;100.00;101510.69;5038024;28;20047;-84
2023/05/01 06:59:03;;;;;;;0.98;0.70;;;;;;;12.67;100.00;101502.06;5037927;28;20051;-83
2023/05/01 07:01:29;;;;;;;1.98;0.70;;;;;;;12.49;100.00;101500.44;5021375;28;20480;-86
2023/05/01 07:03:56;;;;;;;0.50;0.50;;;;;;;12.61;100.00;101505.47;5021834;28;20045;-83
2023/05/01 07:06:21;;;;;;;1.60;0.70;;;;;;;12.66;100.00;101505.81;5053978;28;20036;-88
2023/05/01 07:08:47;;;;;;;1.23;0.80;;;;;;;12.67;100.00;101512.88;5021367;28;20037;-84
2023/05/01 07:11:13;;;;;;;2.15;1.00;;;;;;;12.62;100.00;101513.41;5037573;28;20379;-85
2023/05/01 07:13:39;;;;;;;0.82;0.60;;;;;;;12.60;100.00;101514.59;5021153;28;20037;-86
2023/05/01 07:16:08;;;;;;;1.30;0.70;;;;;;;12.55;100.00;101512.41;5037432;28;20037;-86
2023/05/01 07:18:34;;;;;;;1.40;0.88;;;;;;;12.64;100.00;101514.06;5020960;28;20033;-84
2023/05/01 07:21:00;;;;;;;0.90;0.70;;;;;;;12.80;100.00;101504.25;5053834;28;20100;-83
2023/05/01 07:23:27;;;;;;;2.50;1.02;;;;;;;12.95;100.00;101499.81;5053665;28;20056;-85
2023/05/01 07:25:53;;;;;;;0.77;0.70;;;;;;;13.02;100.00;101514.31;5037204;28;20025;-83
2023/05/01 07:28:22;;;;;;;1.25;0.60;;;;;;;13.01;100.00;101511.78;5037169;28;20043;-85
2023/05/01 07:30:48;;;;;;;0.93;0.73;;;;;;;13.11;100.00;101523.22;5053774;28;20120;-83
2023/05/01 07:33:14;;;;;;;1.23;0.95;;;;;;;13.25;100.00;101516.25;5037359;28;20124;-84
2023/05/01 07:35:40;;;;;;;1.23;0.70;;;;;;;13.41;100.00;101517.06;5037167;28;20060;-86
2023/05/01 07:38:08;;;;;;;1.55;0.82;;;;;;;13.62;100.00;101527.25;5053616;28;20025;-82
2023/05/01 07:40:42;;;;;;;1.48;1.00;;;;;;;13.63;100.00;101485.72;5022325;28;20032;-86
2023/05/01 07:43:11;;;;;;;0.70;0.70;;;;;;;14.15;100.00;101530.13;5053688;28;20078;-82
2023/05/01 07:45:37;;;;;;;2.28;0.90;;;;;;;14.35;100.00;101514.25;5053470;28;20126;-81
2023/05/01 07:48:05;;;;;;;1.30;0.77;;;;;;;14.67;100.00;101515.84;5054419;28;20586;-83
2023/05/01 07:50:33;;;;;;;2.25;0.98;;;;;;;15.38;97.37;101512.69;5036964;28;20069;-83
2023/05/01 07:53:04;;;;;;;1.23;1.10;;;;;;;16.72;91.63;101523.84;5053475;28;20112;-83
2023/05/01 07:55:34;;;;;;;0.93;0.80;;;;;;;17.63;83.33;101526.47;5053274;28;20032;-82
2023/05/01 07:58:06;;;;;;;1.52;0.93;;;;;;;17.50;77.10;101521.00;5019273;28;20064;-84
2023/05/01 08:00:31;;;;;;;3.22;0.90;;;;;;;17.04;77.12;101517.00;5021258;28;20040;-83
2023/05/01 08:02:59;;;;;;;1.90;0.85;;;;;;;16.30;78.01;101519.31;5053233;28;20037;-84
2023/05/01 08:05:30;;;;;;;1.83;0.90;;;;;;;15.94;81.56;101518.38;5020725;28;20048;-81
2023/05/01 08:07:59;;;;;;;2.10;0.80;;;;;;;15.65;82.93;101527.41;5037163;28;20104;-83
2023/05/01 08:10:27;;;;;;;0.80;0.70;;;;;;;15.14;83.16;101519.25;5020368;28;20110;-86
2023/05/01 08:12:56;;;;;;;2.92;0.80;;;;;;;14.80;87.67;101542.28;5036800;28;20040;-82
2023/05/01 08:15:21;;;;;;;1.48;0.70;;;;;;;14.68;91.11;101536.47;5020002;28;20116;-85
2023/05/01 08:17:47;;;;;;;1.75;0.77;;;;;;;14.66;89.88;101532.25;5036630;28;20460;-85
2023/05/01 08:20:13;;;;;;;1.30;0.60;;;;;;;14.95;84.63;101540.44;5036421;28;20033;-82
2023/05/01 08:22:38;;;;;;;2.70;0.88;;;;;;;15.25;81.63;101528.78;5052178;28;20103;-85
2023/05/01 08:25:04;;;;;;;1.60;0.80;;;;;;;15.81;82.47;101538.03;5052712;28;20021;-84
2023/05/01 08:27:30;;;;;;;1.88;0.80;;;;;;;15.97;78.46;101538.84;5035983;28;20028;-84
2023/05/01 08:29:56;;;;;;;2.92;0.82;;;;;;;15.89;78.34;101536.25;5019788;28;20044;-84
2023/05/01 08:32:25;;;;;;;1.08;0.70;;;;;;;15.71;77.55;101518.53;5068315;28;20037;-84
2023/05/01 08:34:50;;;;;;;1.10;0.50;;;;;;;15.84;74.35;101531.41;5052321;28;20029;-84
2023/05/01 08:37:18;;;;;;;1.38;0.73;;;;;;;15.95;76.38;101538.19;5052429;28;20394;-83
2023/05/01 08:39:44;;;;;;;0.55;0.50;;;;;;;15.89;74.03;101523.53;5052294;28;20033;-84
2023/05/01 08:42:10;;;;;;;1.65;0.90;;;;;;;15.79;74.78;101531.13;5034113;28;20025;-85
2023/05/01 08:44:40;;;;;;;2.97;0.50;;;;;;;15.76;72.93;101528.81;5053704;28;20047;-87
2023/05/01 08:47:11;;;;;;;1.70;0.60;;;;;;;15.60;73.52;101527.97;5019324;28;20091;-80
2023/05/01 08:49:39;;;;;;;0.63;0.63;;;;;;;15.46;69.90;101523.44;5051296;28;20498;-84
2023/05/01 08:52:05;;;;;;;1.73;0.77;;;;;;;15.45;73.92;101540.69;5035407;28;20029;-81
2023/05/01 08:54:32;;;;;;;1.65;0.85;;;;;;;15.49;74.21;101544.72;5035737;28;20087;-83
2023/05/01 08:57:02;;;;;;;0.55;0.50;;;;;;;15.50;70.90;101542.84;5018937;28;20086;-84
2023/05/01 08:59:30;;;;;;;0.50;0.50;;;;;;;15.28;71.27;101544.66;5036091;28;20041;-85
2023/05/01 09:01:55;;;;;;;0.65;0.63;;;;;;;15.00;70.72;101544.44;5035909;28;20083;-85
2023/05/01 09:04:22;;;;;;;0.73;0.68;;;;;;;14.66;72.63;101533.13;5052249;28;20029;-85
2023/05/01 09:06:48;;;;;;;0.60;0.60;;;;;;;14.51;72.86;101546.59;5055625;28;20093;-85
2023/05/01 09:09:13;;;;;;;1.33;0.70;;;;;;;14.38;73.68;101535.53;5058626;28;20108;-86
2023/05/01 09:11:39;;;;;;;0.50;0.50;;;;;;;14.35;74.27;101548.59;5052475;28;20029;-86
2023/05/01 09:14:07;;;;;;;0.98;0.60;;;;;;;14.23;76.49;101546.28;5052813;28;20052;-85
2023/05/01 09:16:33;;;;;;;0.60;0.60;;;;;;;14.19;78.17;101544.16;5052044;28;20041;-86
2023/05/01 09:18:59;;;;;;;1.25;0.57;;;;;;;14.40;78.35;101551.59;5051871;28;20059;-85
2023/05/01 09:21:26;;;;;;;0.63;0.57;;;;;;;14.54;77.27;101555.41;5035649;28;20033;-85
2023/05/01 09:23:55;;;;;;;1.33;0.65;;;;;;;14.60;77.31;101547.38;5035740;28;20040;-85
2023/05/01 09:26:20;;;;;;;0.63;0.52;;;;;;;14.75;77.50;101557.41;5051698;28;20056;-84
2023/05/01 09:28:47;;;;;;;1.10;0.57;;;;;;;15.05;77.49;101558.28;5052206;28;20108;-85
2023/05/01 09:31:21;;;;;;;0.88;0.68;;;;;;;15.28;72.99;101564.44;5018594;28;20579;-84
2023/05/01 09:33:53;;;;;;;0.40;0.40;;;;;;;15.32;72.24;101564.91;5019293;28;20025;-85
2023/05/01 09:36:18;;;;;;;0.95;0.50;;;;;;;15.45;73.08;101554.25;5035473;28;20052;-86
2023/05/01 09:38:44;;;;;;;0.50;0.50;;;;;;;15.44;72.04;101530.91;5051926;28;20467;-84
2023/05/01 09:41:10;;;;;;;1.27;0.52;;;;;;;15.80;70.76;101559.94;5052930;28;20033;-85
2023/05/01 09:43:36;;;;;;;1.33;0.50;;;;;;;16.07;70.11;101566.50;5051643;28;20443;-82
2023/05/01 09:46:11;;;;;;;0.77;0.70;;;;;;;16.51;69.55;101564.63;5035511;28;20025;-87
2023/05/01 09:48:53;;;;;;;0.63;0.60;;;;;;;16.84;67.08;101549.47;5052807;28;20111;-82
2023/05/01 09:51:20;;;;;;;0.60;0.60;;;;;;;17.21;63.68;101546.56;5052306;28;20139;-84
2023/05/01 09:53:46;;;;;;;1.17;0.60;;;;;;;17.25;61.70;101558.72;5051994;28;20463;-82
2023/05/01 09:56:13;;;;;;;0.63;0.63;;;;;;;17.23;61.81;101558.09;5034824;28;20025;-82
2023/05/01 09:58:39;;;;;;;0.57;0.57;;;;;;;17.07;62.03;101570.94;5050700;28;20033;-82
2023/05/01 10:01:05;;;;;;;0.60;0.60;;;;;;;17.12;62.02;101557.63;5052384;28;20190;-80
2023/05/01 10:03:36;;;;;;;1.10;0.60;;;;;;;17.50;59.24;101564.50;5052527;28;20025;-82
2023/05/01 10:06:03;;;;;;;1.30;0.68;;;;;;;18.41;56.47;101575.88;5034678;28;20422;-82
2023/05/01 10:08:46;;;;;;;1.88;0.70;;;;;;;18.86;55.19;101570.66;5034627;28;20037;-81
2023/05/01 10:11:12;;;;;;;1.70;0.90;;;;;;;19.65;54.17;101557.88;5034867;28;20090;-84
2023/05/01 10:13:37;;;;;;;1.05;0.60;;;;;;;19.75;53.06;101568.38;5035085;28;20510;-83
2023/05/01 10:16:06;;;;;;;0.50;0.50;;;;;;;19.43;53.06;101575.63;5050824;28;20116;-82
2023/05/01 10:18:34;;;;;;;1.00;0.60;;;;;;;18.77;53.82;101571.94;5037336;28;20025;-82
2023/05/01 10:20:59;;;;;;;2.25;0.60;;;;;;;18.31;54.91;101566.44;5052605;28;20025;-83
2023/05/01 10:23:25;;;;;;;0.85;0.70;;;;;;;18.30;56.98;101576.50;5053981;28;20033;-81
2023/05/01 10:25:55;;;;;;;2.28;0.77;;;;;;;18.62;56.48;101580.28;5053349;28;20044;-81
2023/05/01 10:28:23;;;;;;;0.93;0.70;;;;;;;18.70;55.01;101573.81;5054785;28;20025;-84
2023/05/01 10:30:50;;;;;;;0.60;0.60;;;;;;;18.62;54.51;101580.28;5054694;28;20036;-82
2023/05/01 10:33:16;;;;;;;0.95;0.70;;;;;;;18.67;56.15;101582.41;5038316;28;20456;-82
2023/05/01 10:35:46;;;;;;;1.27;0.70;;;;;;;18.74;54.74;101594.13;5054807;28;20029;-83
2023/05/01 10:38:36;;;;;;;0.70;0.50;;;;;;;18.50;56.13;101583.84;5021409;28;20025;-82
2023/05/01 10:41:02;;;;;;;0.60;0.60;;;;;;;18.31;56.76;101589.09;5038552;28;20033;-82
2023/05/01 10:43:30;;;;;;;0.73;0.63;;;;;;;18.22;55.11;101584.84;5037807;28;20067;-82
2023/05/01 10:46:19;;;;;;;1.50;0.80;;;;;;;18.07;56.60;101584.19;5054532;28;20036;-83
2023/05/01 10:48:45;;;;;;;1.45;0.80;;;;;;;17.95;56.18;101594.84;5054628;28;20046;-83
2023/05/01 10:51:16;;;;;;;0.50;0.50;;;;;;;17.61;56.90;101595.72;5054768;28;20396;-83
2023/05/01 10:53:42;;;;;;;1.17;0.55;;;;;;;17.33;58.45;101602.91;5038696;28;20040;-83
2023/05/01 10:56:28;;;;;;;0.68;0.60;;;;;;;16.92;60.59;101605.53;5054455;28;20029;-81
2023/05/01 10:58:56;;;;;;;2.25;0.70;;;;;;;16.36;61.56;101594.56;5049866;28;20530;-82
2023/05/01 11:01:36;;;;;;;0.50;0.50;;;;;;;16.18;64.90;101614.00;5054191;28;20033;-83
2023/05/01 11:04:26;;;;;;;0.57;0.57;;;;;;;16.05;65.81;101603.81;5055461;28;20025;-82
2023/05/01 11:07:04;;;;;;;1.60;0.63;;;;;;;16.21;66.58;101610.88;5054181;28;20029;-80
2023/05/01 11:09:50;;;;;;;0.95;0.68;;;;;;;16.26;65.36;101614.69;5070930;28;20056;-81
2023/05/01 11:12:52;;;;;;;1.08;0.57;;;;;;;16.33;64.92;101611.25;5021773;28;20475;-81
2023/05/01 11:15:31;;;;;;;0.55;0.55;;;;;;;16.46;64.81;101614.91;5036833;28;20032;-82
2023/05/01 11:18:03;;;;;;;0.60;0.60;;;;;;;16.70;63.12;101616.41;5054285;28;20048;-81
2023/05/01 11:20:35;;;;;;;0.70;0.70;;;;;;;16.84;62.81;101592.09;5021347;28;20069;-82
2023/05/01 11:23:01;;;;;;;1.70;0.70;;;;;;;17.39;61.48;101616.72;5054661;28;20041;-81
2023/05/01 11:25:34;;;;;;;0.95;0.68;;;;;;;17.81;58.47;101602.13;5037255;28;20032;-83
2023/05/01 11:28:02;;;;;;;0.60;0.60;;;;;;;18.48;55.24;101613.19;5021411;28;20094;-80